OTBH/IUD METAR and TAF weather

Enter ICAO airport designator
Station Type Date Time Source
OTBH METAR 2022/01/29 10:56 UTC NOAA

OTBH 291056Z AUTO 34014G19KT 8000 HZ CLR 22/08 A3010 RMK AO2 SLP195 T02190084 $


Station Type Date Time Source
OTBH Decoded METAR 2022/01/29 10:56 UTC NOAA

Station name not available
Jan 29, 2022 - 05:56 AM EST / 2022.01.29 1056 UTC
Wind: from the NNW (340 degrees) at 16 MPH (14 KT) gusting to 22 MPH (19 KT):0
Visibility: 4 mile(s):0
Sky conditions: clear
Weather: haze
Temperature: 71.4 F (21.9 C)
Dew Point: 47.1 F (8.4 C)
Relative Humidity: 41%
Pressure (altimeter): 30.1 in. Hg (1019 hPa)
ob: OTBH 291056Z AUTO 34014G19KT 8000 HZ CLR 22/08 A3010 RMK AO2 SLP195 T02190084
cycle: 11

Station Type Date Time Source
OTBH TAF 2022/01/29 08:06 UTC NOAA

TAF TAF OTBH 290755Z 2908/3014 34012G20KT 5000 HZ SKC QNH3013INS
TEMPO 2908/2912 34015G25KT 3600 BLDU
BECMG 2911/2912 34015KT 6000 HZ SKC QNH3012INS
BECMG 3000/3001 34009KT 8000 HZ SKC QNH3009INS
BECMG 3004/3005 35007KT 9999 NSW FEW120 QNH2998INS TX24/2912Z TN13/3003Z

Example: see airport list